createdAt,value
2023-05-26T00:00:38.942Z,17.13
2023-05-26T00:03:24.504Z,17.16
2023-05-26T00:05:55.250Z,17.19
2023-05-26T00:08:24.319Z,17.28
2023-05-26T00:10:55.054Z,17.49
2023-05-26T00:13:23.736Z,17.20
2023-05-26T00:15:52.206Z,17.10
2023-05-26T00:18:21.043Z,17.05
2023-05-26T00:20:49.489Z,17.15
2023-05-26T00:23:18.176Z,17.09
2023-05-26T00:25:46.729Z,17.11
2023-05-26T00:28:17.703Z,17.43
2023-05-26T00:30:46.013Z,17.09
2023-05-26T00:33:15.203Z,16.99
2023-05-26T00:35:43.743Z,17.10
2023-05-26T00:38:12.974Z,16.96
2023-05-26T00:40:42.310Z,17.39
2023-05-26T00:43:11.459Z,17.10
2023-05-26T00:45:41.325Z,17.38
2023-05-26T00:48:09.895Z,16.99
2023-05-26T00:50:38.257Z,17.06
2023-05-26T00:53:07.153Z,17.00
2023-05-26T00:55:36.078Z,17.02
2023-05-26T00:58:05.321Z,17.24
2023-05-26T01:00:34.170Z,17.02
2023-05-26T01:03:06.602Z,17.41
2023-05-26T01:05:35.030Z,17.03
2023-05-26T01:08:03.849Z,17.07
2023-05-26T01:10:32.876Z,17.01
2023-05-26T01:13:04.605Z,17.41
2023-05-26T01:15:38.192Z,17.46
2023-05-26T01:18:14.682Z,17.48
2023-05-26T01:20:47.248Z,17.38
2023-05-26T01:23:24.216Z,17.47
2023-05-26T01:26:11.776Z,17.59
2023-05-26T01:28:43.872Z,17.45
2023-05-26T01:31:12.248Z,17.00
2023-05-26T01:33:40.902Z,16.86
2023-05-26T01:36:09.512Z,17.05
2023-05-26T01:38:38.249Z,16.82
2023-05-26T01:41:13.785Z,17.40
2023-05-26T01:43:46.924Z,17.25
2023-05-26T01:46:24.661Z,17.23
2023-05-26T01:48:54.093Z,16.83
2023-05-26T01:51:23.830Z,16.77
2023-05-26T01:53:55.779Z,16.75
2023-05-26T01:56:24.404Z,16.32
2023-05-26T01:58:55.352Z,16.46
2023-05-26T02:01:27.639Z,16.42
2023-05-26T02:03:57.279Z,16.11
2023-05-26T02:06:25.898Z,15.92
2023-05-26T02:08:54.952Z,15.99
2023-05-26T02:11:23.346Z,15.76
2023-05-26T02:13:52.031Z,15.80
2023-05-26T02:16:23.146Z,16.10
2023-05-26T02:18:51.851Z,15.67
2023-05-26T02:21:20.648Z,15.78
2023-05-26T02:23:49.218Z,15.53
2023-05-26T02:26:17.571Z,15.54
2023-05-26T02:28:46.126Z,15.50
2023-05-26T02:31:15.219Z,15.78
2023-05-26T02:33:45.496Z,15.83
2023-05-26T02:36:15.178Z,15.44
2023-05-26T02:38:43.902Z,15.28
2023-05-26T02:41:12.206Z,15.27
2023-05-26T02:43:41.488Z,15.21
2023-05-26T02:46:09.869Z,15.09
2023-05-26T02:48:38.520Z,15.11
2023-05-26T02:51:08.688Z,15.54
2023-05-26T02:53:37.592Z,15.24
2023-05-26T02:56:07.834Z,15.43
2023-05-26T02:58:36.715Z,15.46
2023-05-26T03:01:05.663Z,15.55
2023-05-26T03:03:35.719Z,15.76
2023-05-26T03:06:04.930Z,15.85
2023-05-26T03:08:35.470Z,16.15
2023-05-26T03:11:10.991Z,15.88
2023-05-26T03:13:40.421Z,15.96
2023-05-26T03:16:09.064Z,16.18
2023-05-26T03:18:37.868Z,16.11
2023-05-26T03:21:47.482Z,16.24
2023-05-26T03:23:58.003Z,16.73
2023-05-26T03:26:26.543Z,16.49
2023-05-26T03:28:55.156Z,16.48
2023-05-26T03:31:24.720Z,16.64
2023-05-26T03:33:53.239Z,16.57
2023-05-26T03:36:22.035Z,16.73
2023-05-26T03:38:50.484Z,16.65
2023-05-26T03:41:20.028Z,17.07
2023-05-26T03:43:48.627Z,16.90
2023-05-26T03:46:17.162Z,16.85
2023-05-26T03:48:46.238Z,17.12
2023-05-26T03:51:14.556Z,17.01
2023-05-26T03:53:44.029Z,17.22
2023-05-26T03:56:12.386Z,17.13
2023-05-26T03:58:42.611Z,17.56
2023-05-26T04:01:11.020Z,17.15
2023-05-26T04:03:41.772Z,17.11
2023-05-26T04:06:11.634Z,17.36
2023-05-26T04:08:40.561Z,17.11
2023-05-26T04:11:08.756Z,17.15
2023-05-26T04:13:40.218Z,17.58
2023-05-26T04:16:10.132Z,17.58
2023-05-26T04:18:41.464Z,17.31
2023-05-26T04:21:09.912Z,17.38
2023-05-26T04:23:39.198Z,17.40
2023-05-26T04:26:08.265Z,17.48
2023-05-26T04:28:37.328Z,17.59
2023-05-26T04:31:05.887Z,17.58
2023-05-26T04:33:40.556Z,18.08
2023-05-26T04:36:10.383Z,17.91
2023-05-26T04:38:42.649Z,17.92
2023-05-26T04:41:11.031Z,18.01
2023-05-26T04:43:42.226Z,18.52
2023-05-26T04:46:12.551Z,18.24
2023-05-26T04:48:43.121Z,18.72
2023-05-26T04:51:11.580Z,18.48
2023-05-26T04:53:40.296Z,18.68
2023-05-26T04:56:08.890Z,18.70
2023-05-26T04:58:38.708Z,18.74
2023-05-26T05:01:08.643Z,18.81
2023-05-26T05:03:38.316Z,20.04
2023-05-26T05:06:08.520Z,19.55
2023-05-26T05:08:37.957Z,19.32
2023-05-26T05:11:06.657Z,19.67
2023-05-26T05:13:35.397Z,19.82
2023-05-26T05:16:04.953Z,20.24
2023-05-26T05:18:33.925Z,20.51
2023-05-26T05:21:02.325Z,20.97
2023-05-26T05:23:35.659Z,21.53
2023-05-26T05:26:04.322Z,21.60
2023-05-26T05:28:33.060Z,22.10
2023-05-26T05:31:01.476Z,22.38
2023-05-26T05:33:30.368Z,22.72
2023-05-26T05:35:58.883Z,22.99
2023-05-26T05:38:27.608Z,23.12
2023-05-26T05:40:57.503Z,23.60
2023-05-26T05:43:26.143Z,23.31
2023-05-26T05:45:54.752Z,23.44
2023-05-26T05:48:23.366Z,23.31
2023-05-26T05:50:51.839Z,23.58
2023-05-26T05:53:20.612Z,23.79
2023-05-26T05:55:48.972Z,24.09
2023-05-26T05:58:19.653Z,24.88
2023-05-26T06:00:48.211Z,24.64
2023-05-26T06:03:17.118Z,24.62
2023-05-26T06:05:45.943Z,24.71
2023-05-26T06:08:14.639Z,24.49
2023-05-26T06:10:43.024Z,24.42
2023-05-26T06:13:11.736Z,24.42
2023-05-26T06:15:41.323Z,24.87
2023-05-26T06:18:09.966Z,24.64
2023-05-26T06:20:38.508Z,24.56
2023-05-26T06:23:08.410Z,24.42
2023-05-26T06:25:39.261Z,24.35
2023-05-26T06:28:07.993Z,24.42
2023-05-26T06:30:36.311Z,24.61
2023-05-26T06:33:06.607Z,25.13
2023-05-26T06:35:34.874Z,25.15
2023-05-26T06:38:03.623Z,25.41
2023-05-26T06:40:32.216Z,26.12
2023-05-26T06:43:00.856Z,27.52
2023-05-26T06:45:29.041Z,28.14
2023-05-26T06:47:57.649Z,28.38
2023-05-26T06:50:27.733Z,28.92
2023-05-26T06:52:56.348Z,28.88
2023-05-26T06:55:24.652Z,29.46
2023-05-26T06:57:53.272Z,29.86
2023-05-26T07:00:23.649Z,30.49
2023-05-26T07:02:52.333Z,30.50
2023-05-26T07:05:21.167Z,30.81
2023-05-26T07:07:51.442Z,31.33
2023-05-26T07:10:19.649Z,31.07
2023-05-26T07:12:48.466Z,31.10
2023-05-26T07:15:16.868Z,31.39
2023-05-26T07:17:45.680Z,31.53
2023-05-26T07:20:14.525Z,31.63
2023-05-26T07:22:44.033Z,31.73
2023-05-26T07:25:13.986Z,32.36
2023-05-26T07:27:42.649Z,32.54
2023-05-26T07:30:11.913Z,33.24
2023-05-26T07:32:40.660Z,33.91
2023-05-26T07:35:09.884Z,34.14
2023-05-26T07:37:38.638Z,34.05
2023-05-26T07:40:08.587Z,34.42
2023-05-26T07:42:39.122Z,34.64
2023-05-26T07:45:11.309Z,34.66
2023-05-26T07:47:40.353Z,34.34
2023-05-26T07:50:09.872Z,35.60
2023-05-26T07:52:38.417Z,36.42
2023-05-26T07:55:07.058Z,36.55
2023-05-26T07:57:35.809Z,36.30
2023-05-26T08:00:06.320Z,37.31
2023-05-26T08:02:36.776Z,38.00
2023-05-26T08:05:05.679Z,38.66
2023-05-26T08:07:34.730Z,39.02
2023-05-26T08:10:03.972Z,38.99
2023-05-26T08:12:32.615Z,40.56
2023-05-26T08:15:01.100Z,42.20
2023-05-26T08:17:31.056Z,43.52
2023-05-26T08:19:59.889Z,43.60
2023-05-26T08:22:28.549Z,44.21
2023-05-26T08:24:58.371Z,44.42
2023-05-26T08:27:27.245Z,44.80
2023-05-26T08:29:55.707Z,45.91
2023-05-26T08:32:25.261Z,46.92
2023-05-26T08:34:55.185Z,48.21
2023-05-26T08:37:23.706Z,47.65
2023-05-26T08:39:52.023Z,47.01
2023-05-26T08:42:27.699Z,46.28
2023-05-26T08:45:02.438Z,46.42
2023-05-26T08:47:33.329Z,47.17
2023-05-26T08:50:05.770Z,47.80
2023-05-26T08:52:34.793Z,47.07
2023-05-26T08:55:03.371Z,46.61
2023-05-26T08:57:32.364Z,46.74
2023-05-26T09:00:01.911Z,46.50
2023-05-26T09:02:31.233Z,45.33
2023-05-26T09:05:00.346Z,45.36
2023-05-26T09:07:32.852Z,44.93
2023-05-26T09:10:23.302Z,43.89
2023-05-26T09:12:53.154Z,42.47
2023-05-26T09:15:23.037Z,42.03
2023-05-26T09:17:52.106Z,41.68
2023-05-26T09:20:20.578Z,40.65
2023-05-26T09:22:51.065Z,39.55
2023-05-26T09:25:19.563Z,38.35
2023-05-26T09:27:49.803Z,38.55
2023-05-26T09:30:18.815Z,37.97
2023-05-26T09:32:47.959Z,37.06
2023-05-26T09:35:18.070Z,36.32
2023-05-26T09:37:46.458Z,35.72
2023-05-26T09:40:17.980Z,34.26
2023-05-26T09:43:13.875Z,33.67
2023-05-26T09:45:59.450Z,32.65
2023-05-26T09:48:38.510Z,31.64
2023-05-26T09:51:07.533Z,31.19
2023-05-26T09:53:37.023Z,30.82
2023-05-26T09:58:40.255Z,30.92
2023-05-26T10:01:09.511Z,31.20
2023-05-26T10:03:38.164Z,31.37
2023-05-26T10:06:07.738Z,32.26
2023-05-26T10:08:37.272Z,32.57
2023-05-26T10:11:07.096Z,33.26
2023-05-26T10:13:36.686Z,33.73
2023-05-26T10:16:05.910Z,33.92
2023-05-26T10:18:34.892Z,34.30
2023-05-26T10:21:08.202Z,35.44
2023-05-26T10:23:39.495Z,34.84
2023-05-26T10:26:13.291Z,33.86
2023-05-26T10:28:46.458Z,32.82
2023-05-26T10:31:30.046Z,32.38
2023-05-26T10:33:59.829Z,31.74
2023-05-26T10:36:30.090Z,32.08
2023-05-26T10:38:59.150Z,32.54
2023-05-26T10:41:33.553Z,33.22
2023-05-26T10:44:03.005Z,33.16
2023-05-26T10:46:39.674Z,33.75
2023-05-26T10:49:22.279Z,33.71
2023-05-26T10:51:52.173Z,32.88
2023-05-26T10:54:23.895Z,32.79
2023-05-26T10:56:54.858Z,33.16
2023-05-26T10:59:25.573Z,33.93
2023-05-26T11:01:54.665Z,36.03
2023-05-26T11:04:23.759Z,37.12
2023-05-26T11:06:53.657Z,36.94
2023-05-26T11:09:25.587Z,37.46
2023-05-26T11:11:58.534Z,37.38
2023-05-26T11:14:28.274Z,36.96
2023-05-26T11:17:01.133Z,36.89
2023-05-26T11:19:31.683Z,36.69
2023-05-26T11:22:01.040Z,36.71
2023-05-26T11:24:29.803Z,35.91
2023-05-26T11:27:01.144Z,35.94
2023-05-26T11:29:30.395Z,35.21
2023-05-26T11:31:59.213Z,34.59
2023-05-26T11:34:28.222Z,33.98
2023-05-26T11:36:57.099Z,33.57
2023-05-26T11:39:26.151Z,33.04
2023-05-26T11:41:54.427Z,32.74
2023-05-26T11:44:30.711Z,32.72
2023-05-26T11:46:59.214Z,31.74
2023-05-26T11:49:27.728Z,31.50
2023-05-26T11:51:57.853Z,31.48
2023-05-26T11:54:26.900Z,31.53
2023-05-26T11:56:55.486Z,31.22
2023-05-26T11:59:25.962Z,31.44
2023-05-26T12:01:54.354Z,30.87
2023-05-26T12:04:28.595Z,30.98
2023-05-26T12:06:57.075Z,29.92
2023-05-26T12:09:26.309Z,29.51
2023-05-26T12:11:55.403Z,29.15
2023-05-26T12:14:25.983Z,28.85
2023-05-26T12:16:56.671Z,28.31
2023-05-26T12:19:27.758Z,28.58
2023-05-26T12:22:00.464Z,27.56
2023-05-26T12:24:34.769Z,27.35
2023-05-26T12:27:07.849Z,27.13
2023-05-26T12:29:39.254Z,26.86
2023-05-26T12:32:08.646Z,26.60
2023-05-26T12:34:39.784Z,26.56
2023-05-26T12:37:08.877Z,26.11
2023-05-26T12:39:37.517Z,25.78
2023-05-26T12:42:07.125Z,25.81
2023-05-26T12:44:35.865Z,25.45
2023-05-26T12:47:05.847Z,25.75
2023-05-26T12:49:34.642Z,25.56
2023-05-26T12:52:03.021Z,25.62
2023-05-26T12:54:31.520Z,25.58
2023-05-26T12:57:00.061Z,25.56
2023-05-26T12:59:28.726Z,25.61
2023-05-26T13:01:58.119Z,25.73
2023-05-26T13:04:28.334Z,26.24
2023-05-26T13:06:58.491Z,26.19
2023-05-26T13:09:27.525Z,26.39
2023-05-26T13:11:55.781Z,26.81
2023-05-26T13:14:24.296Z,27.23
2023-05-26T13:16:52.748Z,27.63
2023-05-26T13:19:22.368Z,27.71
2023-05-26T13:21:52.365Z,28.04
2023-05-26T13:24:20.956Z,27.77
2023-05-26T13:26:49.155Z,27.70
2023-05-26T13:29:18.286Z,27.46
2023-05-26T13:31:46.605Z,27.27
2023-05-26T13:34:15.698Z,27.16
2023-05-26T13:36:46.752Z,27.13
2023-05-26T13:39:16.687Z,27.37
2023-05-26T13:41:44.961Z,27.11
2023-05-26T13:44:15.827Z,27.12
2023-05-26T13:46:44.213Z,27.16
2023-05-26T13:49:13.247Z,27.27
2023-05-26T13:51:41.673Z,27.22
2023-05-26T13:54:10.514Z,27.32
2023-05-26T13:56:40.321Z,27.48
2023-05-26T13:59:08.972Z,27.07
2023-05-26T14:01:38.500Z,26.85
2023-05-26T14:04:08.547Z,26.84
2023-05-26T14:06:38.420Z,26.68
2023-05-26T14:09:08.197Z,26.60
2023-05-26T14:11:36.926Z,26.51
2023-05-26T14:14:06.799Z,26.60
2023-05-26T14:16:35.143Z,26.27
2023-05-26T14:19:04.598Z,26.28
2023-05-26T14:21:56.361Z,26.36
2023-05-26T14:24:25.009Z,26.40
2023-05-26T14:26:55.192Z,26.33
2023-05-26T14:29:25.374Z,26.74
2023-05-26T14:31:54.115Z,26.36
2023-05-26T14:34:22.845Z,26.35
2023-05-26T14:36:51.681Z,26.45
2023-05-26T14:39:20.585Z,26.50
2023-05-26T14:41:48.968Z,26.28
2023-05-26T14:44:17.956Z,26.26
2023-05-26T14:46:48.025Z,26.45
2023-05-26T14:49:16.831Z,26.21
2023-05-26T14:51:46.739Z,26.11
2023-05-26T14:54:15.546Z,26.14
2023-05-26T14:56:43.902Z,26.10
2023-05-26T14:59:12.885Z,25.87
2023-05-26T15:01:41.312Z,25.79
2023-05-26T15:04:15.526Z,25.99
2023-05-26T15:06:44.318Z,25.76
2023-05-26T15:09:14.296Z,25.75
2023-05-26T15:11:44.198Z,25.89
2023-05-26T15:14:12.873Z,25.84
2023-05-26T15:16:41.158Z,25.90
2023-05-26T15:19:11.444Z,26.32
2023-05-26T15:21:40.181Z,25.90
2023-05-26T15:24:09.121Z,25.91
2023-05-26T15:26:37.718Z,25.75
2023-05-26T15:29:06.511Z,25.57
2023-05-26T15:31:35.011Z,25.34
2023-05-26T15:34:03.785Z,25.08
2023-05-26T15:36:33.618Z,25.23
2023-05-26T15:39:03.208Z,24.76
2023-05-26T15:41:33.337Z,24.50
2023-05-26T15:44:04.055Z,24.40
2023-05-26T15:46:32.662Z,24.14
2023-05-26T15:49:01.392Z,24.01
2023-05-26T15:51:30.147Z,23.93
2023-05-26T15:54:00.366Z,24.28
2023-05-26T15:56:29.075Z,23.79
2023-05-26T15:58:57.663Z,23.60
2023-05-26T16:01:26.131Z,23.43
2023-05-26T16:03:55.032Z,23.44
2023-05-26T16:06:23.814Z,23.28
2023-05-26T16:08:52.770Z,23.37
2023-05-26T16:11:22.731Z,23.49
2023-05-26T16:13:52.007Z,23.26
2023-05-26T16:16:20.840Z,23.05
2023-05-26T16:18:50.164Z,22.90
2023-05-26T16:21:18.941Z,22.93
2023-05-26T16:23:48.446Z,22.91
2023-05-26T16:26:17.145Z,22.81
2023-05-26T16:28:47.117Z,23.10
2023-05-26T16:31:15.579Z,22.68
2023-05-26T16:33:44.837Z,22.52
2023-05-26T16:36:13.104Z,22.42
2023-05-26T16:38:46.070Z,22.36
2023-05-26T16:41:14.582Z,22.34
2023-05-26T16:43:48.954Z,22.19
2023-05-26T16:46:19.069Z,22.42
2023-05-26T16:48:47.558Z,21.98
2023-05-26T16:51:15.907Z,21.84
2023-05-26T16:53:44.565Z,21.74
2023-05-26T16:56:12.892Z,21.71
2023-05-26T16:58:41.507Z,21.60
2023-05-26T17:01:10.035Z,21.57
2023-05-26T17:03:40.328Z,21.82
2023-05-26T17:06:08.889Z,21.39
2023-05-26T17:08:37.754Z,21.38
2023-05-26T17:11:06.048Z,21.33
2023-05-26T17:13:34.827Z,21.28
2023-05-26T17:16:03.721Z,21.34
2023-05-26T17:18:32.634Z,21.28
2023-05-26T17:21:02.775Z,21.65
2023-05-26T17:23:31.741Z,21.31
2023-05-26T17:26:00.124Z,21.35
2023-05-26T17:28:28.780Z,21.32
2023-05-26T17:30:57.523Z,21.22
2023-05-26T17:33:26.279Z,21.14
2023-05-26T17:35:54.643Z,21.13
2023-05-26T17:38:24.910Z,21.30
2023-05-26T17:40:53.389Z,21.05
2023-05-26T17:43:22.403Z,21.00
2023-05-26T17:45:50.695Z,20.83
2023-05-26T17:48:19.332Z,20.81
2023-05-26T17:50:47.799Z,20.70
2023-05-26T17:53:16.369Z,20.65
2023-05-26T17:55:46.297Z,20.85
2023-05-26T17:58:15.006Z,20.46
2023-05-26T18:00:45.055Z,20.23
2023-05-26T18:03:14.168Z,20.35
2023-05-26T18:05:42.670Z,20.15
2023-05-26T18:08:11.391Z,20.18
2023-05-26T18:10:39.799Z,20.04
2023-05-26T18:13:09.662Z,20.19
2023-05-26T18:15:38.372Z,19.90
2023-05-26T18:18:08.092Z,19.91
2023-05-26T18:20:36.999Z,19.72
2023-05-26T18:23:05.815Z,19.70
2023-05-26T18:25:36.361Z,19.49
2023-05-26T18:28:05.806Z,19.50
2023-05-26T18:30:35.585Z,19.78
2023-05-26T18:33:04.794Z,19.47
2023-05-26T18:35:32.982Z,19.27
2023-05-26T18:38:02.016Z,19.20
2023-05-26T18:40:30.485Z,19.27
2023-05-26T18:42:59.494Z,19.14
2023-05-26T18:45:27.862Z,19.21
2023-05-26T18:47:57.982Z,19.52
2023-05-26T18:50:27.201Z,19.26
2023-05-26T18:52:55.813Z,19.18
2023-05-26T18:55:24.064Z,19.22
2023-05-26T18:57:52.572Z,19.21
2023-05-26T19:00:21.666Z,19.33
2023-05-26T19:02:50.835Z,19.34
2023-05-26T19:05:21.015Z,19.55
2023-05-26T19:07:49.775Z,19.32
2023-05-26T19:10:18.114Z,19.15
2023-05-26T19:12:46.840Z,19.14
2023-05-26T19:15:15.740Z,19.14
2023-05-26T19:17:44.247Z,19.13
2023-05-26T19:20:14.215Z,19.45
2023-05-26T19:22:44.425Z,19.49
2023-05-26T19:25:12.924Z,19.11
2023-05-26T19:27:41.779Z,19.19
2023-05-26T19:30:11.370Z,19.20
2023-05-26T19:32:42.556Z,19.10
2023-05-26T19:35:11.926Z,19.16
2023-05-26T19:37:40.602Z,18.94
2023-05-26T19:40:11.888Z,19.21
2023-05-26T19:42:40.625Z,18.80
2023-05-26T19:45:10.917Z,19.04
2023-05-26T19:47:39.454Z,18.78
2023-05-26T19:50:08.701Z,18.95
2023-05-26T19:52:37.332Z,18.77
2023-05-26T19:55:06.274Z,18.88
2023-05-26T19:57:36.475Z,19.01
2023-05-26T20:00:06.662Z,18.90
2023-05-26T20:02:35.754Z,18.72
2023-05-26T20:05:06.312Z,19.04
2023-05-26T20:07:36.606Z,18.65
2023-05-26T20:10:05.745Z,18.78
2023-05-26T20:12:34.501Z,18.59
2023-05-26T20:15:05.157Z,18.91
2023-05-26T20:17:33.752Z,18.60
2023-05-26T20:20:13.227Z,18.56
2023-05-26T20:22:42.455Z,18.57
2023-05-26T20:25:11.223Z,18.59
2023-05-26T20:27:40.109Z,18.54
2023-05-26T20:30:11.737Z,18.97
2023-05-26T20:32:40.465Z,18.60
2023-05-26T20:35:09.872Z,18.67
2023-05-26T20:37:38.614Z,18.57
2023-05-26T20:40:10.418Z,18.76
2023-05-26T20:42:38.910Z,18.55
2023-05-26T20:45:09.810Z,18.74
2023-05-26T20:47:38.592Z,18.51
2023-05-26T20:50:08.908Z,18.70
2023-05-26T20:52:38.019Z,18.37
2023-05-26T20:55:07.638Z,18.48
2023-05-26T20:57:36.202Z,18.35
2023-05-26T21:00:06.269Z,18.39
2023-05-26T21:02:36.639Z,18.47
2023-05-26T21:05:05.755Z,18.15
2023-05-26T21:07:34.221Z,17.99
2023-05-26T21:10:02.472Z,17.93
2023-05-26T21:12:31.052Z,17.89
2023-05-26T21:15:00.563Z,17.84
2023-05-26T21:17:29.638Z,17.79
2023-05-26T21:19:59.311Z,18.01
2023-05-26T21:22:27.904Z,17.60
2023-05-26T21:24:56.159Z,17.53
2023-05-26T21:27:24.711Z,17.47
2023-05-26T21:29:53.424Z,17.44
2023-05-26T21:32:22.916Z,17.57
2023-05-26T21:34:51.099Z,17.20
2023-05-26T21:37:21.137Z,17.42
2023-05-26T21:39:49.398Z,17.09
2023-05-26T21:42:18.733Z,17.06
2023-05-26T21:44:48.100Z,17.22
2023-05-26T21:47:17.712Z,16.96
2023-05-26T21:49:46.081Z,16.87
2023-05-26T21:52:14.646Z,16.80
2023-05-26T21:54:45.110Z,17.12
2023-05-26T21:57:13.663Z,16.75
2023-05-26T21:59:41.977Z,16.71
2023-05-26T22:02:10.713Z,16.59
2023-05-26T22:04:39.028Z,16.57
2023-05-26T22:07:07.993Z,16.71
2023-05-26T22:09:36.287Z,16.47
2023-05-26T22:12:07.412Z,16.79
2023-05-26T22:14:35.808Z,16.37
2023-05-26T22:17:04.397Z,16.31
2023-05-26T22:19:32.887Z,16.32
2023-05-26T22:22:01.595Z,16.23
2023-05-26T22:24:29.832Z,16.17
2023-05-26T22:26:58.583Z,16.18
2023-05-26T22:29:28.173Z,16.49
2023-05-26T22:31:56.716Z,16.13
2023-05-26T22:34:24.846Z,16.05
2023-05-26T22:36:53.538Z,16.09
2023-05-26T22:39:21.920Z,16.11
2023-05-26T22:41:51.291Z,16.08
2023-05-26T22:44:19.611Z,15.93
2023-05-26T22:46:49.612Z,16.15
2023-05-26T22:49:18.009Z,15.80
2023-05-26T22:51:46.708Z,15.72
2023-05-26T22:54:14.965Z,15.64
2023-05-26T22:56:45.017Z,16.01
2023-05-26T22:59:13.501Z,15.63
2023-05-26T23:01:42.071Z,15.64
2023-05-26T23:04:12.154Z,15.88
2023-05-26T23:06:40.684Z,15.52
2023-05-26T23:09:09.008Z,15.50
2023-05-26T23:11:37.514Z,15.45
2023-05-26T23:14:05.877Z,15.35
2023-05-26T23:16:34.596Z,15.31
2023-05-26T23:19:02.897Z,15.25
2023-05-26T23:21:33.121Z,15.58
2023-05-26T23:24:01.516Z,15.19
2023-05-26T23:26:30.053Z,15.23
2023-05-26T23:28:58.387Z,15.21
2023-05-26T23:31:27.087Z,15.21
2023-05-26T23:33:55.794Z,15.17
2023-05-26T23:36:25.840Z,15.20
2023-05-26T23:38:55.367Z,15.51
2023-05-26T23:41:23.961Z,15.10
2023-05-26T23:43:52.234Z,15.02
2023-05-26T23:46:20.739Z,14.99
2023-05-26T23:48:49.445Z,14.97
2023-05-26T23:51:18.006Z,14.96
2023-05-26T23:53:46.437Z,14.93
2023-05-26T23:56:16.333Z,15.26
2023-05-26T23:58:44.535Z,14.90
